Time;durP1;ratioP1;P1;durP2;ratioP2;P2;SDS_P1;SDS_P2;PMS_P1;PMS_P2;Temp;Humidity;BMP_temperature;BMP_pressure;BME280_temperature;BME280_humidity;BME280_pressure;Samples;Min_cycle;Max_cycle;Signal;HPM_P1;HPM_P2
2023/07/18 00:02:05;;;;;;;8.50;5.15;;;;;;;;;;6218950;23;20387;-80
2023/07/18 00:04:32;;;;;;;7.30;5.20;;;;;;;;;;6218973;23;20360;-80
2023/07/18 00:06:59;;;;;;;7.03;4.60;;;;;;;;;;6221315;23;20047;-80
2023/07/18 00:09:26;;;;;;;6.60;4.68;;;;;;;;;;6220892;23;20025;-80
2023/07/18 00:11:53;;;;;;;8.98;5.00;;;;;;;;;;6221122;23;20024;-80
2023/07/18 00:14:22;;;;;;;7.28;4.60;;;;;;;;;;6219888;23;20036;-80
2023/07/18 00:16:49;;;;;;;6.97;4.50;;;;;;;;;;6220933;23;20044;-80
2023/07/18 00:19:17;;;;;;;7.45;4.35;;;;;;;;;;6221663;23;20021;-79
2023/07/18 00:21:44;;;;;;;6.00;3.83;;;;;;;;;;6222300;23;20016;-81
2023/07/18 00:24:11;;;;;;;6.88;4.25;;;;;;;;;;6221634;23;20116;-80
2023/07/18 00:26:38;;;;;;;6.78;4.15;;;;;;;;;;6222623;23;20079;-80
2023/07/18 00:29:05;;;;;;;5.65;3.97;;;;;;;;;;6221871;23;20047;-80
2023/07/18 00:31:34;;;;;;;7.13;4.53;;;;;;;;;;6222482;23;20341;-80
2023/07/18 00:34:02;;;;;;;6.95;4.40;;;;;;;;;;6222497;23;20023;-80
2023/07/18 00:36:29;;;;;;;5.88;4.00;;;;;;;;;;6222865;23;20024;-81
2023/07/18 00:38:56;;;;;;;5.28;4.00;;;;;;;;;;6224003;23;20495;-80
2023/07/18 00:41:24;;;;;;;7.75;4.60;;;;;;;;;;6222775;23;20024;-80
2023/07/18 00:43:51;;;;;;;5.85;3.83;;;;;;;;;;6224596;23;20024;-80
2023/07/18 00:46:19;;;;;;;6.07;4.22;;;;;;;;;;6222750;23;20075;-80
2023/07/18 00:48:47;;;;;;;6.75;4.20;;;;;;;;;;6221017;23;20395;-79
2023/07/18 00:51:14;;;;;;;7.15;3.47;;;;;;;;;;6219057;23;20024;-79
2023/07/18 00:53:41;;;;;;;6.53;3.75;;;;;;;;;;6216952;23;20025;-77
2023/07/18 00:56:09;;;;;;;6.68;4.38;;;;;;;;;;6219591;23;20324;-80
2023/07/18 00:58:37;;;;;;;9.02;4.10;;;;;;;;;;6219895;23;20027;-80
2023/07/18 01:01:04;;;;;;;5.35;3.45;;;;;;;;;;6220236;23;20459;-80
2023/07/18 01:03:31;;;;;;;6.90;4.03;;;;;;;;;;6220381;23;20025;-80
2023/07/18 01:05:59;;;;;;;6.40;4.00;;;;;;;;;;6220206;23;20024;-80
2023/07/18 01:08:26;;;;;;;6.72;4.07;;;;;;;;;;6220694;23;20016;-80
2023/07/18 01:10:53;;;;;;;6.82;4.65;;;;;;;;;;6220549;23;20275;-80
2023/07/18 01:13:20;;;;;;;6.38;3.80;;;;;;;;;;6221086;23;20021;-80
2023/07/18 01:15:47;;;;;;;6.13;3.80;;;;;;;;;;6221835;23;20024;-80
2023/07/18 01:18:14;;;;;;;6.18;3.67;;;;;;;;;;6221761;23;20032;-80
2023/07/18 01:20:44;;;;;;;6.90;4.50;;;;;;;;;;6220344;23;20020;-80
2023/07/18 01:23:13;;;;;;;7.10;4.32;;;;;;;;;;6224746;23;20032;-80
2023/07/18 01:25:39;;;;;;;6.88;4.47;;;;;;;;;;6223694;23;20051;-80
2023/07/18 01:28:08;;;;;;;6.85;4.10;;;;;;;;;;6224357;23;20028;-80
2023/07/18 01:30:34;;;;;;;6.38;4.00;;;;;;;;;;6223359;23;20028;-80
2023/07/18 01:33:02;;;;;;;6.95;4.00;;;;;;;;;;6218250;23;20028;-79
2023/07/18 01:35:30;;;;;;;7.63;4.00;;;;;;;;;;6217179;23;20017;-79
2023/07/18 01:37:58;;;;;;;7.47;4.32;;;;;;;;;;6216901;23;20021;-80
2023/07/18 01:40:26;;;;;;;7.10;4.00;;;;;;;;;;6217223;23;20024;-80
2023/07/18 01:42:55;;;;;;;6.85;4.22;;;;;;;;;;6216689;23;20032;-80
2023/07/18 01:45:24;;;;;;;6.80;4.40;;;;;;;;;;6216940;23;20452;-80
2023/07/18 01:47:51;;;;;;;6.57;4.43;;;;;;;;;;6218218;23;20020;-80
2023/07/18 01:50:19;;;;;;;6.47;4.50;;;;;;;;;;6219053;23;20112;-80
2023/07/18 01:52:46;;;;;;;6.03;4.18;;;;;;;;;;6219005;23;20020;-80
2023/07/18 01:55:13;;;;;;;6.20;4.25;;;;;;;;;;6218635;23;20123;-80
2023/07/18 01:57:46;;;;;;;5.95;3.95;;;;;;;;;;6219675;23;20079;-79
2023/07/18 02:00:18;;;;;;;5.57;3.85;;;;;;;;;;6220173;23;20023;-79
2023/07/18 02:02:48;;;;;;;7.20;4.10;;;;;;;;;;6221069;23;20025;-80
2023/07/18 02:05:15;;;;;;;6.97;4.20;;;;;;;;;;6221070;23;20356;-79
2023/07/18 02:07:42;;;;;;;5.25;3.38;;;;;;;;;;6221057;23;20241;-80
2023/07/18 02:10:09;;;;;;;7.07;4.20;;;;;;;;;;6220640;23;20071;-80
2023/07/18 02:12:36;;;;;;;6.78;4.20;;;;;;;;;;6218776;23;20028;-81
2023/07/18 02:15:05;;;;;;;5.75;4.22;;;;;;;;;;6220438;23;20075;-80
2023/07/18 02:17:32;;;;;;;8.00;4.75;;;;;;;;;;6220566;23;20051;-79
2023/07/18 02:20:00;;;;;;;7.18;4.30;;;;;;;;;;6224165;23;20027;-79
2023/07/18 02:22:27;;;;;;;6.90;4.30;;;;;;;;;;6221132;23;20103;-80
2023/07/18 02:24:54;;;;;;;8.02;4.90;;;;;;;;;;6219430;23;20052;-80
2023/07/18 02:27:22;;;;;;;7.13;4.10;;;;;;;;;;6219988;23;20020;-80
2023/07/18 02:29:49;;;;;;;6.28;3.90;;;;;;;;;;6218674;23;20032;-79
2023/07/18 02:32:17;;;;;;;7.70;3.75;;;;;;;;;;6218008;23;20103;-79
2023/07/18 02:34:45;;;;;;;7.18;4.13;;;;;;;;;;6217895;23;20044;-79
2023/07/18 02:37:12;;;;;;;5.85;3.85;;;;;;;;;;6218503;23;20056;-80
2023/07/18 02:39:44;;;;;;;7.07;3.75;;;;;;;;;;6221539;23;20344;-82
2023/07/18 02:42:11;;;;;;;7.38;4.13;;;;;;;;;;6220996;23;20071;-80
2023/07/18 02:44:38;;;;;;;6.78;3.72;;;;;;;;;;6221942;23;20025;-84
2023/07/18 02:47:05;;;;;;;7.53;4.10;;;;;;;;;;6220874;23;20020;-80
2023/07/18 02:49:37;;;;;;;7.13;4.55;;;;;;;;;;6219723;23;20116;-83
2023/07/18 02:52:04;;;;;;;6.15;3.75;;;;;;;;;;6220543;23;20020;-80
2023/07/18 02:54:31;;;;;;;7.55;4.15;;;;;;;;;;6221223;23;20028;-83
2023/07/18 02:56:58;;;;;;;5.97;3.97;;;;;;;;;;6220365;23;20067;-81
2023/07/18 02:59:26;;;;;;;7.72;4.38;;;;;;;;;;6218485;23;20024;-83
2023/07/18 03:01:57;;;;;;;6.28;3.95;;;;;;;;;;6223373;23;20028;-82
2023/07/18 03:04:24;;;;;;;5.90;4.00;;;;;;;;;;6225532;23;20107;-82
2023/07/18 03:06:52;;;;;;;6.07;3.63;;;;;;;;;;6223955;23;20092;-83
2023/07/18 03:09:21;;;;;;;5.75;3.55;;;;;;;;;;6224385;23;20104;-82
2023/07/18 03:11:49;;;;;;;5.75;4.07;;;;;;;;;;6225076;23;20351;-83
2023/07/18 03:14:16;;;;;;;5.85;3.28;;;;;;;;;;6224314;23;20072;-82
2023/07/18 03:16:45;;;;;;;7.90;4.28;;;;;;;;;;6227002;23;20269;-82
2023/07/18 03:19:12;;;;;;;7.45;3.70;;;;;;;;;;6227112;23;20024;-82
2023/07/18 03:21:39;;;;;;;7.90;4.20;;;;;;;;;;6227150;23;20022;-82
2023/07/18 03:24:08;;;;;;;6.13;3.83;;;;;;;;;;6227452;23;20027;-81
2023/07/18 03:26:36;;;;;;;7.35;4.43;;;;;;;;;;6227575;23;20025;-83
2023/07/18 03:29:04;;;;;;;7.35;4.10;;;;;;;;;;6226963;23;20120;-82
2023/07/18 03:31:31;;;;;;;6.32;4.10;;;;;;;;;;6226408;23;20020;-82
2023/07/18 03:34:00;;;;;;;6.45;4.10;;;;;;;;;;6227355;23;20108;-80
2023/07/18 03:36:27;;;;;;;6.97;4.47;;;;;;;;;;6230247;23;20028;-82
2023/07/18 03:38:54;;;;;;;6.82;3.92;;;;;;;;;;6225358;23;20023;-82
2023/07/18 03:41:22;;;;;;;6.93;3.60;;;;;;;;;;6227476;23;20021;-82
2023/07/18 03:43:49;;;;;;;7.60;3.95;;;;;;;;;;6227865;23;20043;-82
2023/07/18 03:46:16;;;;;;;7.97;4.10;;;;;;;;;;6228754;23;20028;-80
2023/07/18 03:48:43;;;;;;;6.65;4.25;;;;;;;;;;6228170;23;20024;-80
2023/07/18 03:51:10;;;;;;;6.78;4.32;;;;;;;;;;6229062;23;20047;-82
2023/07/18 03:53:38;;;;;;;7.00;4.40;;;;;;;;;;6230086;23;20084;-81
2023/07/18 03:56:06;;;;;;;6.47;4.10;;;;;;;;;;6228323;23;20020;-81
2023/07/18 03:58:35;;;;;;;7.10;3.90;;;;;;;;;;6228862;23;20043;-80
2023/07/18 04:01:07;;;;;;;6.72;3.92;;;;;;;;;;6226574;23;20100;-79
2023/07/18 04:03:34;;;;;;;7.60;5.13;;;;;;;;;;6226430;23;20080;-80
2023/07/18 04:06:01;;;;;;;7.10;4.35;;;;;;;;;;6227151;23;20024;-82
2023/07/18 04:08:28;;;;;;;7.68;5.05;;;;;;;;;;6226508;23;20028;-80
2023/07/18 04:10:56;;;;;;;7.10;4.65;;;;;;;;;;6228234;23;20020;-81
2023/07/18 04:13:23;;;;;;;7.47;4.25;;;;;;;;;;6227837;23;20068;-81
2023/07/18 04:15:52;;;;;;;8.13;4.03;;;;;;;;;;6227416;23;20031;-80
2023/07/18 04:18:19;;;;;;;6.35;4.13;;;;;;;;;;6226964;23;20055;-81
2023/07/18 04:20:46;;;;;;;8.32;3.90;;;;;;;;;;6226622;23;20027;-82
2023/07/18 04:23:13;;;;;;;7.82;4.00;;;;;;;;;;6228475;23;20070;-83
2023/07/18 04:25:55;;;;;;;6.68;3.75;;;;;;;;;;6229503;23;20070;-82
2023/07/18 04:28:22;;;;;;;5.68;3.80;;;;;;;;;;6229575;23;20020;-83
2023/07/18 04:30:49;;;;;;;6.78;3.97;;;;;;;;;;6228333;23;20459;-83
2023/07/18 04:33:17;;;;;;;9.75;4.03;;;;;;;;;;6218798;23;20025;-84
2023/07/18 04:35:45;;;;;;;6.00;3.75;;;;;;;;;;6219195;23;20021;-83
2023/07/18 04:38:13;;;;;;;6.60;3.90;;;;;;;;;;6219475;23;20372;-80
2023/07/18 04:40:40;;;;;;;5.68;3.42;;;;;;;;;;6218759;23;20183;-79
2023/07/18 04:43:07;;;;;;;6.85;4.18;;;;;;;;;;6219502;23;20468;-80
2023/07/18 04:45:34;;;;;;;5.32;3.90;;;;;;;;;;6221140;23;20024;-84
2023/07/18 04:48:02;;;;;;;6.07;3.80;;;;;;;;;;6221969;23;20027;-82
2023/07/18 04:50:31;;;;;;;6.40;3.72;;;;;;;;;;6221146;23;20024;-83
2023/07/18 04:52:57;;;;;;;8.30;3.85;;;;;;;;;;6222487;23;20020;-84
2023/07/18 04:55:25;;;;;;;6.50;3.90;;;;;;;;;;6222739;23;20017;-83
2023/07/18 04:57:52;;;;;;;7.32;4.00;;;;;;;;;;6223563;23;20048;-83
2023/07/18 05:00:19;;;;;;;6.78;3.80;;;;;;;;;;6220989;23;20024;-82
2023/07/18 05:02:46;;;;;;;7.55;3.88;;;;;;;;;;6222085;23;20017;-83
2023/07/18 05:05:14;;;;;;;7.90;3.92;;;;;;;;;;6222534;23;20325;-84
2023/07/18 05:07:43;;;;;;;6.40;3.97;;;;;;;;;;6220989;23;20411;-83
2023/07/18 05:10:10;;;;;;;6.35;3.95;;;;;;;;;;6219898;23;20047;-84
2023/07/18 05:12:37;;;;;;;7.05;4.10;;;;;;;;;;6221183;23;20025;-83
2023/07/18 05:15:04;;;;;;;8.13;4.30;;;;;;;;;;6221524;23;20035;-84
2023/07/18 05:17:31;;;;;;;6.80;4.10;;;;;;;;;;6222658;23;20356;-84
2023/07/18 05:19:58;;;;;;;8.68;4.35;;;;;;;;;;6223135;23;20021;-83
2023/07/18 05:22:25;;;;;;;6.38;4.22;;;;;;;;;;6224531;23;20020;-84
2023/07/18 05:24:53;;;;;;;6.90;4.30;;;;;;;;;;6224862;23;20017;-84
2023/07/18 05:27:21;;;;;;;6.70;3.97;;;;;;;;;;6224353;23;20016;-83
2023/07/18 05:29:48;;;;;;;6.65;4.32;;;;;;;;;;6222207;23;20028;-84
2023/07/18 05:32:15;;;;;;;6.07;4.13;;;;;;;;;;6223900;23;20020;-82
2023/07/18 05:34:42;;;;;;;8.20;4.32;;;;;;;;;;6221314;23;20025;-84
2023/07/18 05:37:09;;;;;;;7.00;4.57;;;;;;;;;;6220721;23;20032;-84
2023/07/18 05:39:36;;;;;;;7.15;3.85;;;;;;;;;;6221962;23;20021;-81
2023/07/18 05:42:05;;;;;;;7.95;4.07;;;;;;;;;;6222149;23;20025;-79
2023/07/18 05:44:32;;;;;;;7.22;4.50;;;;;;;;;;6223060;23;20025;-84
2023/07/18 05:46:59;;;;;;;6.80;4.38;;;;;;;;;;6222720;23;20086;-84
2023/07/18 05:49:27;;;;;;;7.70;3.78;;;;;;;;;;6223583;23;20025;-83
2023/07/18 05:51:54;;;;;;;8.38;4.15;;;;;;;;;;6222141;23;20021;-83
2023/07/18 05:54:20;;;;;;;8.15;4.03;;;;;;;;;;6221485;23;20025;-84
2023/07/18 05:56:48;;;;;;;5.70;3.60;;;;;;;;;;6222241;23;20262;-83
2023/07/18 05:59:16;;;;;;;7.82;4.07;;;;;;;;;;6220932;23;20056;-84
2023/07/18 06:01:43;;;;;;;6.90;3.67;;;;;;;;;;6223519;23;20025;-83
2023/07/18 06:04:10;;;;;;;8.57;4.10;;;;;;;;;;6222946;23;20028;-83
2023/07/18 06:06:38;;;;;;;6.13;3.70;;;;;;;;;;6222236;23;20039;-84
2023/07/18 06:09:06;;;;;;;6.57;3.40;;;;;;;;;;6220623;23;20027;-84
2023/07/18 06:11:33;;;;;;;7.80;3.72;;;;;;;;;;6222576;23;20514;-84
2023/07/18 06:14:00;;;;;;;6.53;3.25;;;;;;;;;;6222063;23;20021;-84
2023/07/18 06:16:28;;;;;;;5.13;2.92;;;;;;;;;;6219252;23;20213;-84
2023/07/18 06:18:55;;;;;;;6.30;3.28;;;;;;;;;;6219945;23;20096;-78
2023/07/18 06:21:26;;;;;;;8.85;3.90;;;;;;;;;;6222442;23;20626;-80
2023/07/18 06:23:53;;;;;;;6.97;3.53;;;;;;;;;;6220658;23;20044;-80
2023/07/18 06:26:20;;;;;;;6.38;3.47;;;;;;;;;;6220366;23;20028;-80
2023/07/18 06:28:47;;;;;;;5.35;3.53;;;;;;;;;;6221219;23;20025;-81
2023/07/18 06:31:14;;;;;;;7.70;4.13;;;;;;;;;;6221821;23;20448;-81
2023/07/18 06:33:43;;;;;;;6.03;3.20;;;;;;;;;;6222032;23;20035;-81
2023/07/18 06:36:10;;;;;;;7.45;3.05;;;;;;;;;;6221286;23;20017;-80
2023/07/18 06:38:36;;;;;;;5.80;2.97;;;;;;;;;;6220974;23;20027;-80
2023/07/18 06:41:03;;;;;;;5.95;3.22;;;;;;;;;;6221438;23;20020;-79
2023/07/18 06:43:32;;;;;;;4.63;2.75;;;;;;;;;;6221563;23;20017;-79
2023/07/18 06:46:00;;;;;;;5.65;2.80;;;;;;;;;;6226404;23;20028;-78
2023/07/18 06:48:26;;;;;;;5.75;3.15;;;;;;;;;;6219946;23;20056;-79
2023/07/18 06:50:56;;;;;;;7.45;3.95;;;;;;;;;;6216488;23;20021;-79
2023/07/18 06:53:23;;;;;;;7.18;4.32;;;;;;;;;;6216307;23;20016;-79
2023/07/18 06:55:51;;;;;;;21.05;12.60;;;;;;;;;;6217807;23;20039;-80
2023/07/18 06:58:18;;;;;;;7.85;4.30;;;;;;;;;;6218503;23;20083;-79
2023/07/18 07:00:46;;;;;;;7.82;4.75;;;;;;;;;;6217179;23;20025;-79
2023/07/18 07:03:13;;;;;;;6.57;3.50;;;;;;;;;;6216484;23;20025;-80
2023/07/18 07:05:42;;;;;;;6.05;2.83;;;;;;;;;;6218027;23;20036;-79
2023/07/18 07:08:12;;;;;;;6.40;3.33;;;;;;;;;;6218667;23;20031;-80
2023/07/18 07:10:40;;;;;;;6.90;2.90;;;;;;;;;;6218919;23;20044;-80
2023/07/18 07:13:07;;;;;;;5.50;3.00;;;;;;;;;;6219458;23;20020;-80
2023/07/18 07:15:34;;;;;;;6.32;2.83;;;;;;;;;;6218367;23;20159;-79
2023/07/18 07:18:02;;;;;;;6.18;2.90;;;;;;;;;;6218679;23;20473;-79
2023/07/18 07:20:31;;;;;;;5.80;2.88;;;;;;;;;;6217955;23;20395;-79
2023/07/18 07:22:58;;;;;;;7.28;3.00;;;;;;;;;;6218296;23;20048;-80
2023/07/18 07:25:28;;;;;;;6.47;3.17;;;;;;;;;;6216894;23;20075;-79
2023/07/18 07:27:55;;;;;;;5.80;3.08;;;;;;;;;;6216977;23;20479;-79
2023/07/18 07:30:22;;;;;;;6.95;2.70;;;;;;;;;;6219786;23;20021;-80
2023/07/18 07:32:51;;;;;;;7.72;2.83;;;;;;;;;;6221502;23;20028;-79
2023/07/18 07:35:19;;;;;;;5.65;2.90;;;;;;;;;;6219447;23;20036;-79
2023/07/18 07:37:46;;;;;;;5.07;2.60;;;;;;;;;;6217910;23;20028;-79
2023/07/18 07:40:13;;;;;;;9.57;3.45;;;;;;;;;;6217340;23;20100;-79
2023/07/18 07:42:42;;;;;;;6.20;3.20;;;;;;;;;;6217485;23;20029;-80
2023/07/18 07:45:10;;;;;;;5.78;2.90;;;;;;;;;;6216634;23;20056;-79
2023/07/18 07:47:37;;;;;;;7.60;2.83;;;;;;;;;;6214938;23;20024;-79
2023/07/18 07:50:05;;;;;;;6.25;3.17;;;;;;;;;;6218056;23;20028;-80
2023/07/18 07:52:32;;;;;;;7.38;3.45;;;;;;;;;;6216015;23;20032;-79
2023/07/18 07:54:59;;;;;;;5.07;2.65;;;;;;;;;;6216287;23;20530;-79
2023/07/18 07:57:26;;;;;;;5.32;2.83;;;;;;;;;;6217065;23;20025;-79
2023/07/18 07:59:54;;;;;;;5.80;2.95;;;;;;;;;;6217317;23;20017;-79
2023/07/18 08:02:22;;;;;;;5.32;2.92;;;;;;;;;;6218632;23;20032;-79
2023/07/18 08:04:49;;;;;;;5.22;2.78;;;;;;;;;;6220597;23;20016;-79
2023/07/18 08:07:17;;;;;;;6.38;3.10;;;;;;;;;;6219981;23;20415;-79
2023/07/18 08:09:44;;;;;;;5.43;3.00;;;;;;;;;;6219318;23;20028;-79
2023/07/18 08:12:12;;;;;;;6.43;3.30;;;;;;;;;;6219543;23;20024;-80
2023/07/18 08:14:39;;;;;;;5.45;3.15;;;;;;;;;;6220330;23;20025;-80
2023/07/18 08:17:08;;;;;;;5.13;3.35;;;;;;;;;;6221401;23;20021;-79
2023/07/18 08:19:35;;;;;;;5.50;3.20;;;;;;;;;;6219253;23;20097;-80
2023/07/18 08:22:03;;;;;;;6.35;3.25;;;;;;;;;;6222152;23;20021;-79
2023/07/18 08:24:30;;;;;;;7.72;3.03;;;;;;;;;;6222007;23;20028;-80
2023/07/18 08:26:57;;;;;;;7.63;2.92;;;;;;;;;;6220925;23;20017;-80
2023/07/18 08:29:25;;;;;;;7.60;3.80;;;;;;;;;;6220558;23;20420;-79
2023/07/18 08:31:54;;;;;;;6.95;3.70;;;;;;;;;;6219632;23;20391;-79
2023/07/18 08:34:22;;;;;;;6.32;3.95;;;;;;;;;;6216737;23;20111;-75
2023/07/18 08:36:49;;;;;;;5.68;3.10;;;;;;;;;;6212648;23;20025;-74
2023/07/18 08:39:16;;;;;;;5.32;3.35;;;;;;;;;;6213702;23;20039;-74
2023/07/18 08:41:44;;;;;;;7.43;3.88;;;;;;;;;;6212434;23;20075;-74
2023/07/18 08:44:14;;;;;;;7.18;3.33;;;;;;;;;;6213161;23;20083;-76
2023/07/18 08:46:42;;;;;;;10.63;3.83;;;;;;;;;;6215049;23;20028;-74
2023/07/18 08:49:12;;;;;;;9.15;3.55;;;;;;;;;;6213485;23;20371;-74
2023/07/18 08:51:41;;;;;;;5.90;3.65;;;;;;;;;;6215324;23;20355;-77
2023/07/18 08:54:08;;;;;;;6.28;3.30;;;;;;;;;;6217030;23;20020;-78
2023/07/18 08:56:34;;;;;;;5.45;3.28;;;;;;;;;;6220124;23;20016;-77
2023/07/18 08:59:02;;;;;;;6.90;3.40;;;;;;;;;;6220210;23;20021;-77
2023/07/18 09:01:29;;;;;;;6.35;3.67;;;;;;;;;;6219581;23;20483;-77
2023/07/18 09:03:56;;;;;;;6.65;3.70;;;;;;;;;;6214078;23;20027;-78
2023/07/18 09:06:24;;;;;;;6.25;3.33;;;;;;;;;;6215364;23;20091;-76
2023/07/18 09:08:56;;;;;;;5.13;3.47;;;;;;;;;;6212917;23;20017;-76
2023/07/18 09:11:24;;;;;;;5.10;3.08;;;;;;;;;;6217213;23;20021;-77
2023/07/18 09:13:51;;;;;;;6.88;3.97;;;;;;;;;;6213592;23;20048;-78
2023/07/18 09:16:20;;;;;;;8.30;3.90;;;;;;;;;;6214715;23;20049;-78
2023/07/18 09:18:49;;;;;;;9.23;4.65;;;;;;;;;;6215419;23;20025;-78
2023/07/18 09:21:17;;;;;;;6.47;3.80;;;;;;;;;;6215894;23;20052;-78
2023/07/18 09:23:44;;;;;;;5.68;3.40;;;;;;;;;;6213968;23;20530;-75
2023/07/18 09:26:14;;;;;;;7.93;4.53;;;;;;;;;;6214336;23;20025;-77
2023/07/18 09:28:41;;;;;;;;;;;;;;;;;;6215056;23;20407;-77
2023/07/18 09:31:17;;;;;;;6.22;3.30;;;;;;;;;;6213399;23;19951;-73
2023/07/18 09:33:44;;;;;;;5.38;3.42;;;;;;;;;;6209769;23;20111;-73
2023/07/18 09:36:16;;;;;;;6.13;4.20;;;;;;;;;;6211084;23;20051;-74
2023/07/18 09:38:44;;;;;;;5.88;3.55;;;;;;;;;;6211485;23;20021;-73
2023/07/18 09:41:13;;;;;;;5.93;3.50;;;;;;;;;;6211484;23;20020;-74
2023/07/18 09:43:42;;;;;;;5.63;3.50;;;;;;;;;;6211427;23;20054;-75
2023/07/18 09:46:11;;;;;;;5.85;3.67;;;;;;;;;;6211376;23;20091;-74
2023/07/18 09:48:39;;;;;;;;;;;;;;;;;;6213166;23;20020;-75
2023/07/18 09:51:09;;;;;;;7.70;4.00;;;;;;;;;;6213994;23;19916;-80
2023/07/18 09:53:37;;;;;;;5.78;3.70;;;;;;;;;;6213698;23;20025;-76
2023/07/18 09:56:06;;;;;;;6.07;3.50;;;;;;;;;;6215033;23;20019;-77
2023/07/18 09:58:37;;;;;;;7.60;4.35;;;;;;;;;;6216809;23;20024;-78
2023/07/18 10:01:08;;;;;;;8.48;3.72;;;;;;;;;;6217201;23;20076;-81
2023/07/18 10:03:37;;;;;;;8.68;4.47;;;;;;;;;;6217546;23;20020;-80
2023/07/18 10:06:06;;;;;;;5.90;4.22;;;;;;;;;;6219075;23;20421;-83
2023/07/18 10:08:33;;;;;;;6.40;4.13;;;;;;;;;;6218468;23;20399;-75
2023/07/18 10:11:02;;;;;;;46.35;10.90;;;;;;;;;;6213775;23;20052;-77
2023/07/18 10:13:29;;;;;;;8.73;4.83;;;;;;;;;;6213509;23;20297;-75
2023/07/18 10:16:20;;;;;;;8.20;4.03;;;;;;;;;;6214971;23;20024;-76
2023/07/18 10:18:48;;;;;;;7.35;4.10;;;;;;;;;;6214609;23;20187;-78
2023/07/18 10:21:28;;;;;;;7.10;4.10;;;;;;;;;;6215048;23;20024;-77
2023/07/18 10:23:55;;;;;;;8.68;4.38;;;;;;;;;;6217438;23;20021;-77
2023/07/18 10:26:30;;;;;;;7.40;4.70;;;;;;;;;;6224189;23;20025;-76
2023/07/18 10:29:01;;;;;;;7.38;4.43;;;;;;;;;;6221901;23;20021;-81
2023/07/18 10:31:30;;;;;;;9.00;4.30;;;;;;;;;;6223007;23;20136;-82
2023/07/18 10:34:10;;;;;;;;;;;;;;;;;;6224710;23;20020;-82
2023/07/18 10:36:37;;;;;;;7.10;4.03;;;;;;;;;;6213655;22;19924;-71
2023/07/18 10:39:12;;;;;;;7.13;4.57;;;;;;;;;;6212495;23;20068;-69
2023/07/18 10:41:44;;;;;;;7.50;4.40;;;;;;;;;;6212855;23;20028;-70
2023/07/18 10:44:12;;;;;;;6.53;4.45;;;;;;;;;;6212337;23;20468;-71
2023/07/18 10:46:41;;;;;;;10.90;4.97;;;;;;;;;;6212088;23;20025;-72
2023/07/18 10:49:08;;;;;;;6.93;4.13;;;;;;;;;;6212263;23;20471;-70
2023/07/18 10:51:36;;;;;;;7.75;4.18;;;;;;;;;;6212733;23;20024;-70
2023/07/18 10:54:04;;;;;;;8.88;4.50;;;;;;;;;;6212575;23;20017;-71
2023/07/18 10:56:31;;;;;;;6.07;4.63;;;;;;;;;;6213183;23;20041;-70
2023/07/18 10:58:58;;;;;;;6.32;4.38;;;;;;;;;;6212469;23;20044;-70
2023/07/18 11:01:27;;;;;;;7.03;4.43;;;;;;;;;;6210880;23;20056;-71
2023/07/18 11:03:55;;;;;;;7.75;4.93;;;;;;;;;;6211807;23;20100;-71
2023/07/18 11:06:22;;;;;;;8.82;6.32;;;;;;;;;;6211937;23;20392;-71
2023/07/18 11:08:50;;;;;;;7.40;5.10;;;;;;;;;;6211735;23;20098;-71
2023/07/18 11:11:18;;;;;;;7.13;5.63;;;;;;;;;;6211609;23;20031;-70
2023/07/18 11:13:46;;;;;;;9.60;4.90;;;;;;;;;;6211930;23;20107;-71
2023/07/18 11:16:14;;;;;;;7.43;5.15;;;;;;;;;;6212483;23;20021;-71
2023/07/18 11:18:43;;;;;;;7.70;5.15;;;;;;;;;;6211755;23;20316;-71
2023/07/18 11:21:13;;;;;;;6.43;4.90;;;;;;;;;;6211443;23;20020;-71
2023/07/18 11:23:41;;;;;;;6.13;4.32;;;;;;;;;;6211203;23;20050;-71
2023/07/18 11:26:13;;;;;;;6.38;4.38;;;;;;;;;;6211982;23;20060;-72
2023/07/18 11:28:40;;;;;;;6.90;4.95;;;;;;;;;;6211702;23;20096;-70
2023/07/18 11:31:19;;;;;;;6.72;4.38;;;;;;;;;;6211945;23;20028;-71
2023/07/18 11:33:49;;;;;;;7.38;4.85;;;;;;;;;;6211232;23;20028;-72
2023/07/18 11:36:17;;;;;;;;;;;;;;;;;;6212200;23;20429;-71
2023/07/18 11:38:44;;;;;;;7.00;4.53;;;;;;;;;;6211607;23;20331;-72
2023/07/18 11:41:14;;;;;;;8.20;4.80;;;;;;;;;;6211863;23;20066;-73
2023/07/18 11:43:42;;;;;;;7.30;5.40;;;;;;;;;;6211305;23;20021;-68
2023/07/18 11:46:09;;;;;;;6.30;4.40;;;;;;;;;;6210676;23;20489;-71
2023/07/18 11:48:36;;;;;;;6.35;4.38;;;;;;;;;;6210865;23;20029;-70
2023/07/18 11:51:04;;;;;;;6.35;4.38;;;;;;;;;;6210628;23;20024;-70
2023/07/18 11:53:33;;;;;;;7.25;4.65;;;;;;;;;;6210989;23;20031;-72
2023/07/18 11:55:59;;;;;;;6.43;4.22;;;;;;;;;;6210048;23;20329;-70
2023/07/18 11:58:26;;;;;;;6.18;4.32;;;;;;;;;;6208843;23;20024;-69
2023/07/18 12:01:00;;;;;;;6.00;3.88;;;;;;;;;;6210741;23;20021;-70
2023/07/18 12:03:27;;;;;;;5.90;4.90;;;;;;;;;;6210639;23;20333;-69
2023/07/18 12:05:53;;;;;;;7.90;5.10;;;;;;;;;;6211248;23;20321;-70
2023/07/18 12:08:20;;;;;;;19.77;7.13;;;;;;;;;;6210905;23;20024;-70
2023/07/18 12:10:52;;;;;;;7.97;4.57;;;;;;;;;;6211036;23;20058;-70
2023/07/18 12:13:19;;;;;;;6.78;4.50;;;;;;;;;;6211198;23;20479;-70
2023/07/18 12:15:46;;;;;;;8.38;4.88;;;;;;;;;;6211343;23;20028;-70
2023/07/18 12:18:13;;;;;;;8.82;4.63;;;;;;;;;;6211361;23;20124;-70
2023/07/18 12:20:40;;;;;;;7.00;4.88;;;;;;;;;;6209691;23;20103;-70
2023/07/18 12:23:07;;;;;;;6.05;4.57;;;;;;;;;;6209738;23;20406;-70
2023/07/18 12:25:34;;;;;;;8.02;4.95;;;;;;;;;;6211126;23;20095;-71
2023/07/18 12:28:03;;;;;;;8.13;5.25;;;;;;;;;;6209542;23;20012;-71
2023/07/18 12:30:30;;;;;;;7.28;4.43;;;;;;;;;;6210486;23;20029;-70
2023/07/18 12:32:58;;;;;;;8.30;4.32;;;;;;;;;;6210946;23;20452;-70
2023/07/18 12:35:25;;;;;;;7.15;4.32;;;;;;;;;;6210420;23;20027;-70
2023/07/18 12:37:54;;;;;;;6.68;4.72;;;;;;;;;;6210161;23;20079;-70
2023/07/18 12:40:21;;;;;;;7.22;4.30;;;;;;;;;;6211209;23;20028;-70
2023/07/18 12:42:48;;;;;;;6.80;4.70;;;;;;;;;;6210351;23;20058;-70
2023/07/18 12:45:16;;;;;;;10.60;4.80;;;;;;;;;;6210727;23;20654;-70
2023/07/18 12:47:43;;;;;;;6.05;4.22;;;;;;;;;;6210865;23;20025;-70
2023/07/18 12:50:11;;;;;;;7.65;4.57;;;;;;;;;;6211274;23;20337;-71
2023/07/18 12:52:39;;;;;;;7.28;4.65;;;;;;;;;;6209684;23;20028;-69
2023/07/18 12:55:06;;;;;;;11.55;4.72;;;;;;;;;;6211052;23;20410;-71
2023/07/18 12:57:33;;;;;;;6.35;4.63;;;;;;;;;;6210258;23;20078;-70
2023/07/18 13:00:00;;;;;;;7.40;4.75;;;;;;;;;;6209869;23;20325;-70
2023/07/18 13:02:29;;;;;;;8.35;5.30;;;;;;;;;;6210176;23;20024;-70
2023/07/18 13:04:56;;;;;;;7.85;4.82;;;;;;;;;;6209704;23;20378;-70
2023/07/18 13:07:22;;;;;;;7.00;4.57;;;;;;;;;;6210647;23;20379;-70
2023/07/18 13:09:50;;;;;;;9.68;5.18;;;;;;;;;;6210743;23;20033;-71
2023/07/18 13:12:17;;;;;;;7.35;5.20;;;;;;;;;;6208891;23;20028;-70
2023/07/18 13:14:44;;;;;;;7.50;5.00;;;;;;;;;;6209256;23;20025;-71
2023/07/18 13:17:11;;;;;;;7.78;5.15;;;;;;;;;;6210934;23;20024;-71
2023/07/18 13:19:39;;;;;;;7.40;4.57;;;;;;;;;;6210871;23;20025;-71
2023/07/18 13:22:07;;;;;;;7.25;5.03;;;;;;;;;;6209229;23;20029;-71
2023/07/18 13:24:33;;;;;;;7.50;4.78;;;;;;;;;;6210061;23;20641;-71
2023/07/18 13:27:00;;;;;;;7.65;5.28;;;;;;;;;;6209807;23;20504;-70
2023/07/18 13:29:27;;;;;;;7.75;5.30;;;;;;;;;;6210950;23;20021;-70
2023/07/18 13:31:54;;;;;;;6.97;4.47;;;;;;;;;;6211165;23;20360;-71
2023/07/18 13:34:21;;;;;;;7.45;5.50;;;;;;;;;;6209358;23;20099;-71
2023/07/18 13:36:50;;;;;;;8.80;5.75;;;;;;;;;;6210277;23;20021;-70
2023/07/18 13:39:17;;;;;;;8.27;5.43;;;;;;;;;;6210909;23;20372;-71
2023/07/18 13:41:44;;;;;;;10.50;5.05;;;;;;;;;;6212247;23;20086;-70
2023/07/18 13:44:10;;;;;;;7.15;4.88;;;;;;;;;;6210798;23;20025;-72
2023/07/18 13:46:38;;;;;;;8.48;5.00;;;;;;;;;;6212243;23;20486;-70
2023/07/18 13:49:05;;;;;;;6.72;4.53;;;;;;;;;;6212859;23;20096;-70
2023/07/18 13:51:32;;;;;;;6.63;4.13;;;;;;;;;;6213134;23;20505;-71
2023/07/18 13:54:02;;;;;;;8.15;4.75;;;;;;;;;;6211808;23;20025;-70
2023/07/18 13:56:29;;;;;;;8.00;5.10;;;;;;;;;;6212755;23;20267;-71
2023/07/18 13:58:56;;;;;;;7.10;5.05;;;;;;;;;;6212409;23;20099;-70
2023/07/18 14:01:23;;;;;;;10.38;5.47;;;;;;;;;;6212607;23;20333;-70
2023/07/18 14:03:50;;;;;;;7.82;4.50;;;;;;;;;;6210934;23;20029;-70
2023/07/18 14:06:17;;;;;;;6.90;4.55;;;;;;;;;;6207627;23;20033;-71
2023/07/18 14:08:44;;;;;;;6.38;4.22;;;;;;;;;;6212284;23;20484;-70
2023/07/18 14:11:13;;;;;;;8.55;4.88;;;;;;;;;;6212825;23;20106;-69
2023/07/18 14:13:41;;;;;;;6.60;4.97;;;;;;;;;;6212160;23;20016;-70
2023/07/18 14:16:08;;;;;;;7.28;5.00;;;;;;;;;;6212841;23;20028;-70
2023/07/18 14:18:35;;;;;;;7.63;5.75;;;;;;;;;;6212602;23;20468;-71
2023/07/18 14:21:03;;;;;;;7.70;5.47;;;;;;;;;;6212556;23;20055;-70
2023/07/18 14:23:30;;;;;;;8.35;5.90;;;;;;;;;;6212723;23;20461;-70
2023/07/18 14:25:57;;;;;;;8.48;5.47;;;;;;;;;;6212991;23;20320;-71
2023/07/18 14:28:25;;;;;;;8.43;5.60;;;;;;;;;;6212414;23;20038;-71
2023/07/18 14:30:52;;;;;;;7.93;5.28;;;;;;;;;;6211460;23;20352;-70
2023/07/18 14:33:19;;;;;;;8.23;5.80;;;;;;;;;;6212394;23;20027;-70
2023/07/18 14:35:47;;;;;;;8.55;5.18;;;;;;;;;;6212998;23;20054;-71
2023/07/18 14:38:14;;;;;;;7.40;5.05;;;;;;;;;;6212462;23;20116;-70
2023/07/18 14:40:40;;;;;;;6.53;5.40;;;;;;;;;;6212613;23;20052;-70
2023/07/18 14:43:09;;;;;;;7.13;5.15;;;;;;;;;;6210656;23;20032;-70
2023/07/18 14:45:37;;;;;;;6.60;4.32;;;;;;;;;;6212098;23;20064;-70
2023/07/18 14:48:06;;;;;;;6.28;4.32;;;;;;;;;;6211888;23;20023;-71